Weather reports worldwide

Advertisment
Goteborg, Sweden (2513): temperature: 10.12.2019 14:00:00 - 16.12.2019 14:00:00 (CET)Goteborg, Sweden (2513): wind speed & gusts: 10.12.2019 14:00:00 - 16.12.2019 14:00:00 (CET)Goteborg, Sweden (2513): wind direction: 10.12.2019 14:00:00 - 16.12.2019 14:00:00 (CET)Goteborg, Sweden (2513): reduced air pressure: 10.12.2019 14:00:00 - 16.12.2019 14:00:00 (CET)Goteborg, Sweden (2513): visibility: 10.12.2019 14:00:00 - 16.12.2019 14:00:00 (CET)Goteborg, Sweden (2513): precipitation: 10.12.2019 14:00:00 - 16.12.2019 14:00:00 (CET)
Date & Time tt [°C] ff [km/h] ff [kn] fx [km/h] fx [kn] dd ppp [hPa] vv [km] rr [mm]
16.12.2019 14:00:00 5,5 11 6 42 23 SW 998,6 10 1,5
16.12.2019 13:00:00 6,0 18 10 48 26 SSW 998,5 4,4 3,1
16.12.2019 12:00:00 6,3 21 11 42 23 S 998,4 4,0 2,1
16.12.2019 11:00:00 5,2 10 5 34 18 S 999,1 8 3,9
16.12.2019 10:00:00 5,5 10 6 29 16 S 999,7 5 3,0
16.12.2019 09:00:00 5,5 14 7 29 15 S 999,8 6 0,3
16.12.2019 08:00:00 5,8 11 6 29 16 S 999,4 12 0,0
16.12.2019 07:00:00 6,0 13 7 26 14 SSW 999,2 14 0,0
16.12.2019 06:00:00 5,7 11 6 22 12 SSW 999,2 13 0,0
16.12.2019 05:00:00 5,3 9 5 22 12 SSW 998,6 14 0,0
16.12.2019 04:00:00 5,4 11 6 29 16 SW 998,1 19 0,0
16.12.2019 03:00:00 5,4 13 7 24 13 SSW 997,5 17 0,0
16.12.2019 02:00:00 5,4 9 5 22 12 SW 996,9 28 0,0
16.12.2019 01:00:00 5,3 10 5 20 11 SW 996,1 12 0,0
16.12.2019 00:00:00 3,6 6 3 9 5 SSE 995,1 27 0,0
15.12.2019 23:00:00 3,5 0 0 15 8 N 993,9 43 0,0
15.12.2019 22:00:00 3,5 10 5 30 16 WNW 992,3 19 0,2
15.12.2019 21:00:00 3,0 16 9 32 17 NW 989,8 19 0,2
15.12.2019 20:00:00 2,1 14 8 29 16 NW 986,5 6 1,6
15.12.2019 19:00:00 2,7 8 4 19 10 NNE 982,6 2,1 3,1
15.12.2019 18:00:00 2,3 11 6 21 11 ENE 980,9 4,6 3,9
15.12.2019 17:00:00 2,2 13 7 26 14 E 980,8 2,4 4,3
15.12.2019 16:00:00 2,8 14 8 29 16 ESE 981,0 3,4 1,0
15.12.2019 15:00:00 2,9 16 9 44 24 SE 981,6 5 1,2
15.12.2019 14:00:00 3,1 11 6 27 14 ESE 982,7 5 1,4
15.12.2019 13:00:00 3,7 16 8 40 22 SE 984,4 11 1,5
15.12.2019 12:00:00 5,6 9 5 26 14 SSE 985,0 12 0,0
15.12.2019 11:00:00 5,8 19 11 41 22 S 985,9 6 0,0
15.12.2019 10:00:00 5,4 10 5 23 12 S 986,2 10 0,0
15.12.2019 09:00:00 5,4 10 5 24 13 SSW 986,1 11 0,0
15.12.2019 08:00:00 5,5 13 7 27 15 SSW 986,1 10 0,0
15.12.2019 07:00:00 5,8 15 8 34 18 SSW 985,9 11 0,0
15.12.2019 06:00:00 5,9 11 6 37 20 SW 985,5 21 0,0
15.12.2019 05:00:00 6,0 16 9 32 17 SW 984,8 12 0,0
15.12.2019 04:00:00 5,9 10 5 19 11 SW 984,3 26 0,0
15.12.2019 03:00:00 5,6 7 4 19 10 SSW 983,7 15 0,0
15.12.2019 02:00:00 5,5 9 5 15 8 SSW 983,1 7 0,4
15.12.2019 01:00:00 4,8 6 4 11 6 SSE 982,5 27 0,0
15.12.2019 00:00:00 4,6 6 3 14 7 SSE 981,9 4,7 0,3
14.12.2019 23:00:00 3,7 5 3 14 7 SSE 981,6 3,9 0,7
14.12.2019 22:00:00 3,3 7 4 19 11 ESE 981,1 3,7 1,1
14.12.2019 21:00:00 3,6 10 5 23 13 ESE 980,9 11 0,3
14.12.2019 20:00:00 3,3 7 4 19 10 E 980,9 18 0,1
14.12.2019 19:00:00 3,3 9 5 19 10 E 980,9 13 0,0
14.12.2019 18:00:00 3,1 8 5 18 10 ESE 980,9 12 0,0
14.12.2019 17:00:00 3,1 6 4 16 9 SE 981,0 8 0,3
14.12.2019 16:00:00 3,4 9 5 16 9 SE 980,9 9 0,3
14.12.2019 15:00:00 3,6 9 5 19 11 SE 980,7 9 0,1
14.12.2019 14:00:00 3,8 10 5 17 9 SE 980,6 8 0,0
14.12.2019 13:00:00 3,8 8 4 17 9 SE 980,7 8 0,0
14.12.2019 12:00:00 3,6 8 4 18 10 ESE 980,9 10 0,0
14.12.2019 11:00:00 3,4 5 3 16 8 E 981,2 9 0,0
14.12.2019 10:00:00 3,3 10 5 24 13 SE 981,4 9 0,0
14.12.2019 09:00:00 3,3 8 5 21 11 SE 981,2 11 0,0
14.12.2019 08:00:00 3,4 9 5 23 12 SE 981,1 13 0,0
14.12.2019 07:00:00 3,5 11 6 23 12 SE 981,2 28 0,0
14.12.2019 06:00:00 3,7 7 4 16 9 SE 981,3 42 0,0
14.12.2019 05:00:00 3,8 6 3 13 7 E 981,6 35 0,1
14.12.2019 04:00:00 3,8 5 3 13 7 E 982,2 6 0,2
14.12.2019 03:00:00 3,8 4 2 9 5 E 982,7 12 0,0
14.12.2019 02:00:00 3,8 3 2 12 7 ENE 983,3 11 0,0
14.12.2019 01:00:00 3,7 5 3 14 7 ENE 983,7 9 0,1
14.12.2019 00:00:00 3,8 5 3 16 9 E 984,5 4,4 0,0
13.12.2019 23:00:00 4,0 6 3 14 8 E 984,9 22 0,0
13.12.2019 22:00:00 4,0 8 5 18 10 E 985,6 21 0,0
13.12.2019 21:00:00 3,9 7 4 20 11 E 985,9 20 0,0
13.12.2019 20:00:00 3,8 4 2 17 9 E 986,5 23 0,0
13.12.2019 19:00:00 3,9 8 5 16 9 E 986,7 21 0,0
13.12.2019 18:00:00 4,1 6 3 16 8 ENE 987,0 24 0,0
13.12.2019 17:00:00 3,9 7 4 18 10 NE 987,4 18 0,0
13.12.2019 16:00:00 3,9 7 4 18 10 E 987,8 21 0,0
13.12.2019 15:00:00 4,2 9 5 22 12 E 988,1 18 0,0
13.12.2019 14:00:00 4,3 10 5 26 14 E 988,2 25 0,0
13.12.2019 13:00:00 4,3 12 6 32 17 ESE 988,4 32 0,0
13.12.2019 12:00:00 4,5 9 5 23 13 E 988,6 29 0,0
13.12.2019 11:00:00 4,2 10 5 23 12 ESE 989,2 21 0,0
13.12.2019 10:00:00 3,7 6 4 18 10 E 989,4 16 0,0
13.12.2019 09:00:00 3,4 7 4 25 14 ESE 989,4 12 0,0
13.12.2019 08:00:00 3,4 9 5 21 11 E 989,6 23 0,0
13.12.2019 07:00:00 3,2 4 2 17 9 E 989,8 14 0,0
13.12.2019 06:00:00 3,1 6 3 19 10 ESE 990,0 12 0,0
13.12.2019 05:00:00 3,5 11 6 27 15 SE 990,6 6 0,1
13.12.2019 04:00:00 3,6 8 4 18 10 SE 990,9 14 0,0
13.12.2019 03:00:00 3,6 7 4 20 11 SSE 991,2 21 0,3
13.12.2019 02:00:00 3,8 8 5 15 8 SSE 991,8 8 0,5
13.12.2019 01:00:00 3,6 6 3 18 10 SSE 991,8 3,3 1,1
13.12.2019 00:00:00 4,1 6 3 10 5 SSE 992,1 7 0,1
12.12.2019 23:00:00 4,4 4 2 11 6 SSE 992,3 12 0,0
12.12.2019 22:00:00 5,1 5 3 14 8 S 992,4 19 0,0
12.12.2019 21:00:00 5,5 7 4 17 9 S 992,3 16 0,0
12.12.2019 20:00:00 5,0 5 3 18 10 SSE 992,5 11 1,2
12.12.2019 19:00:00 4,8 8 4 24 13 S 992,5 10 0,5
12.12.2019 18:00:00 4,7 7 4 24 13 SSE 992,8 6 0,9
12.12.2019 17:00:00 4,5 12 7 29 16 SSE 993,5 4,8 0,6
12.12.2019 16:00:00 4,4 7 4 14 8 SSE 993,8 9 0,0
12.12.2019 15:00:00 4,9 6 4 16 9 SSE 994,1 10 0,0
12.12.2019 14:00:00 5,2 5 3 16 9 SSE 994,6 11 0,2
12.12.2019 13:00:00 4,9 9 5 20 11 SSE 995,0 8 1,0
12.12.2019 12:00:00 5,1 8 4 20 11 SSE 995,4 13 0,5
12.12.2019 11:00:00 5,2 8 4 19 11 SE 996,4 26 0,0
12.12.2019 10:00:00 5,2 9 5 17 9 SE 997,0 17 0,0
12.12.2019 09:00:00 5,2 8 5 17 9 SSE 997,3 7 0,0
12.12.2019 08:00:00 5,2 6 3 13 7 SE 997,5 12 0,0
12.12.2019 07:00:00 5,2 4 2 11 6 SSE 997,8 12 0,0
12.12.2019 06:00:00 5,5 5 3 11 6 S 998,1 9 0,0
12.12.2019 05:00:00 5,3 4 2 9 5 S 998,6 8 0,0
12.12.2019 04:00:00 5,2 5 3 9 5 SSE 999,0 7 0,0
12.12.2019 03:00:00 5,6 5 3 11 6 SSE 999,7 8 0,0
12.12.2019 02:00:00 5,6 6 4 14 8 SSE 1000,1 8 0,0
12.12.2019 01:00:00 5,7 5 3 15 8 SSE 1000,4 9 0,0
12.12.2019 00:00:00 5,9 6 4 14 8 S 1000,7 8 0,0
11.12.2019 23:00:00 6,3 9 5 16 9 S 1001,0 9 0,0
11.12.2019 22:00:00 6,5 8 4 18 10 S 1001,4 9 0,0
11.12.2019 21:00:00 6,7 8 5 24 13 S 1001,5 9 0,0
11.12.2019 20:00:00 6,7 10 5 19 10 S 1001,7 9 0,0
11.12.2019 19:00:00 7,0 10 6 22 12 SSW 1002,0 9 0,0
11.12.2019 18:00:00 6,7 11 6 21 12 S 1001,9 10 0,0
11.12.2019 17:00:00 6,6 9 5 23 12 S 1002,1 10 0,0
11.12.2019 16:00:00 6,5 9 5 26 14 S 1001,8 10 0,0
11.12.2019 15:00:00 6,9 9 5 23 12 S 1001,9 10 0,0
11.12.2019 14:00:00 7,1 9 5 23 12 SSW 1001,7 10 0,0
11.12.2019 13:00:00 7,5 11 6 29 16 SSW 1001,7 9 0,0
11.12.2019 12:00:00 7,6 12 7 29 15 SSW 1001,6 10 0,0
11.12.2019 11:00:00 7,4 14 7 30 16 SSW 1001,8 11 0,0
11.12.2019 10:00:00 7,3 15 8 35 19 SSW 1001,1 11 0,0
11.12.2019 09:00:00 7,0 16 9 42 23 SSW 1000,4 13 0,1
11.12.2019 08:00:00 6,6 18 10 42 23 SSW 999,9 9 0,8
11.12.2019 07:00:00 6,3 21 12 49 27 SSW 999,3 5 3,9
11.12.2019 06:00:00 5,7 28 15 54 29 S 998,8 3,0 5,4
11.12.2019 05:00:00 5,1 29 15 61 33 S 998,8 2,9 3,9
11.12.2019 04:00:00 4,8 29 16 61 33 S 999,3 2,2 2,5
11.12.2019 03:00:00 4,7 27 15 56 30 S 1000,3 2,7 2,0
11.12.2019 02:00:00 4,5 29 16 51 27 S 1001,4 3,0 1,9
11.12.2019 01:00:00 4,2 26 14 61 33 S 1002,3 3,5 1,6
11.12.2019 00:00:00 4,7 29 16 62 34 S 1002,9 3,6 0,3
10.12.2019 23:00:00 5,5 29 16 58 31 S 1004,8 13 0,0
10.12.2019 22:00:00 5,5 29 15 62 33 S 1006,1 13 0,0
10.12.2019 21:00:00 5,5 22 12 41 22 S 1007,5 15 0,0
10.12.2019 20:00:00 5,2 18 10 42 23 S 1009,3 13 0,0
10.12.2019 19:00:00 4,9 13 7 30 16 S 1010,6 18 0,0
10.12.2019 18:00:00 3,6 9 5 18 10 SSE 1011,7 27 0,0
10.12.2019 17:00:00 3,0 6 4 19 10 SSE 1013,0 34 0,0
10.12.2019 16:00:00 2,6 12 7 24 13 SSE 1014,2 41 0,0
10.12.2019 15:00:00 2,1 10 5 22 12 SSE 1015,0 34 0,0
10.12.2019 14:00:00 2,1 11 6 19 10 S 1016,0 36 0,0

tt = temperature
ff = wind speed
fx = gusts
dd = wind direction
ppp = reduced air pressure
vv = visibility
rr = precipitation

Next stations